createdAt,value
2022-10-08T00:02:19.013Z,100195.91
2022-10-08T00:06:30.039Z,100193.97
2022-10-08T00:10:33.106Z,100198.97
2022-10-08T00:14:34.993Z,100198.44
2022-10-08T00:18:36.905Z,100195.75
2022-10-08T00:22:41.657Z,100186.94
2022-10-08T00:26:44.450Z,100176.19
2022-10-08T00:30:46.538Z,100172.78
2022-10-08T00:34:48.495Z,100176.44
2022-10-08T00:38:58.772Z,100165.78
2022-10-08T00:43:00.844Z,100157.47
2022-10-08T00:47:02.752Z,100162.44
2022-10-08T00:51:07.615Z,100151.38
2022-10-08T00:55:10.144Z,100153.25
2022-10-08T00:59:20.382Z,100135.91
2022-10-08T01:03:22.484Z,100135.97
2022-10-08T01:07:57.327Z,100128.69
2022-10-08T01:12:05.241Z,100130.38
2022-10-08T01:16:47.720Z,100133.00
2022-10-08T01:21:23.191Z,100130.09
2022-10-08T01:25:37.814Z,100134.22
2022-10-08T01:29:42.042Z,100107.09
2022-10-08T01:34:04.705Z,100102.13
2022-10-08T01:38:07.515Z,100094.59
2022-10-08T01:42:11.803Z,100094.88
2022-10-08T01:46:23.354Z,100102.97
2022-10-08T01:50:35.206Z,100090.59
2022-10-08T01:54:38.109Z,100084.03
2022-10-08T01:59:16.774Z,100074.03
2022-10-08T02:03:24.907Z,100073.22
2022-10-08T02:07:38.356Z,100071.19
2022-10-08T02:11:46.882Z,100071.53
2022-10-08T02:16:14.901Z,100045.09
2022-10-08T02:20:58.854Z,100046.09
2022-10-08T02:25:33.918Z,100048.19
2022-10-08T02:30:02.914Z,100046.22
2022-10-08T02:34:24.328Z,100041.31
2022-10-08T02:38:57.593Z,100036.88
2022-10-08T02:43:03.033Z,100046.56
2022-10-08T02:47:06.861Z,100048.75
2022-10-08T02:51:12.656Z,100044.81
2022-10-08T02:55:36.847Z,100040.91
2022-10-08T02:59:38.778Z,100039.91
2022-10-08T03:03:46.040Z,100045.63
2022-10-08T03:07:48.543Z,100039.72
2022-10-08T03:11:50.754Z,100042.69
2022-10-08T03:15:53.814Z,100040.03
2022-10-08T03:19:55.676Z,100036.47
2022-10-08T03:23:57.570Z,100031.72
2022-10-08T03:27:59.484Z,100046.38
2022-10-08T03:32:01.629Z,100038.75
2022-10-08T03:36:03.891Z,100042.38
2022-10-08T03:40:06.668Z,100040.75
2022-10-08T03:44:09.635Z,100036.47
2022-10-08T03:48:11.522Z,100040.78
2022-10-08T03:52:13.421Z,100040.59
2022-10-08T03:56:21.660Z,100034.03
2022-10-08T04:00:23.516Z,100028.63
2022-10-08T04:04:25.821Z,100042.41
2022-10-08T04:08:27.969Z,100038.47
2022-10-08T04:12:30.244Z,100044.03
2022-10-08T04:16:32.155Z,100035.84
2022-10-08T04:20:34.304Z,100037.47
2022-10-08T04:24:36.349Z,100035.34
2022-10-08T04:28:39.373Z,100032.22
2022-10-08T04:32:41.547Z,100036.63
2022-10-08T04:36:43.446Z,100042.91
2022-10-08T04:40:45.304Z,100042.59
2022-10-08T04:44:47.159Z,100039.28
2022-10-08T04:48:51.743Z,100040.28
2022-10-08T04:52:53.660Z,100042.72
2022-10-08T04:56:55.543Z,100050.94
2022-10-08T05:00:57.378Z,100052.44
2022-10-08T05:04:59.444Z,100050.78
2022-10-08T05:09:03.430Z,100045.06
2022-10-08T05:13:05.444Z,100037.47
2022-10-08T05:17:07.633Z,100050.59
2022-10-08T05:21:14.907Z,100041.41
2022-10-08T05:25:16.965Z,100053.91
2022-10-08T05:29:19.432Z,100054.88
2022-10-08T05:33:21.304Z,100053.91
2022-10-08T05:37:23.414Z,100066.53
2022-10-08T05:41:27.792Z,100060.13
2022-10-08T05:45:30.087Z,100062.13
2022-10-08T05:49:35.215Z,100065.06
2022-10-08T05:53:38.967Z,100082.13
2022-10-08T05:57:40.907Z,100085.94
2022-10-08T06:01:42.862Z,100094.97
2022-10-08T06:05:56.992Z,100098.75
2022-10-08T06:10:01.942Z,100098.06
2022-10-08T06:18:41.502Z,100126.69
2022-10-08T06:23:32.962Z,100133.91
2022-10-08T06:28:16.588Z,100139.31
2022-10-08T06:43:07.644Z,100139.44
2022-10-08T06:47:25.536Z,100142.72
2022-10-08T06:51:29.441Z,100147.16
2022-10-08T06:55:34.655Z,100146.50
2022-10-08T06:59:36.532Z,100141.22
2022-10-08T07:03:38.520Z,100140.88
2022-10-08T07:07:41.634Z,100145.22
2022-10-08T07:12:03.338Z,100143.06
2022-10-08T07:16:21.360Z,100138.38
2022-10-08T07:20:23.604Z,100130.06
2022-10-08T07:24:26.991Z,100128.50
2022-10-08T07:28:32.794Z,100145.97
2022-10-08T07:33:21.958Z,100135.91
2022-10-08T07:38:03.750Z,100105.63
2022-10-08T07:42:20.283Z,100103.38
2022-10-08T07:46:30.080Z,100110.22
2022-10-08T07:56:12.483Z,100126.91
2022-10-08T08:00:21.572Z,100115.88
2022-10-08T08:04:26.295Z,100128.69
2022-10-08T08:08:34.471Z,100129.34
2022-10-08T08:14:10.882Z,100132.75
2022-10-08T08:18:18.463Z,100124.50
2022-10-08T08:22:25.967Z,100127.03
2022-10-08T08:26:32.877Z,100127.41
2022-10-08T08:30:34.930Z,100115.22
2022-10-08T08:39:50.172Z,100116.84
2022-10-08T08:44:24.991Z,100108.06
2022-10-08T08:49:12.485Z,100118.72
2022-10-08T08:53:32.694Z,100129.81
2022-10-08T08:57:57.593Z,100132.34
2022-10-08T09:02:03.917Z,100134.69
2022-10-08T09:06:11.115Z,100129.16
2022-10-08T09:10:29.286Z,100138.63
2022-10-08T09:14:56.044Z,100142.47
2022-10-08T09:18:58.054Z,100130.06
2022-10-08T09:23:02.782Z,100129.94
2022-10-08T09:27:13.617Z,100143.63
2022-10-08T09:31:37.977Z,100148.63
2022-10-08T09:36:58.832Z,100134.94
2022-10-08T09:41:32.793Z,100139.59
2022-10-08T09:46:30.215Z,100148.44
2022-10-08T09:50:53.866Z,100154.06
2022-10-08T10:00:14.329Z,100163.69
2022-10-08T10:09:24.776Z,100164.19
2022-10-08T10:14:27.248Z,100164.53
2022-10-08T10:25:26.228Z,100187.75
2022-10-08T10:35:46.592Z,100199.88
2022-10-08T10:40:31.249Z,100188.34
2022-10-08T10:44:59.544Z,100187.91
2022-10-08T10:49:17.599Z,100187.50
2022-10-08T10:54:04.682Z,100175.88
2022-10-08T10:58:19.584Z,100186.31
2022-10-08T11:02:46.448Z,100182.41
2022-10-08T11:08:02.139Z,100184.66
2022-10-08T11:12:30.055Z,100181.78
2022-10-08T11:17:00.089Z,100165.78
2022-10-08T11:21:25.103Z,100163.00
2022-10-08T11:26:22.928Z,100173.22
2022-10-08T11:30:30.902Z,100166.03
2022-10-08T11:34:35.308Z,100156.06
2022-10-08T11:39:27.270Z,100166.41
2022-10-08T11:43:41.203Z,100168.38
2022-10-08T11:47:42.952Z,100159.66
2022-10-08T11:52:18.573Z,100155.78
2022-10-08T11:56:20.595Z,100144.09
2022-10-08T12:00:34.533Z,100152.88
2022-10-08T12:04:38.396Z,100148.91
2022-10-08T12:08:57.127Z,100156.22
2022-10-08T12:13:02.729Z,100152.34
2022-10-08T12:17:08.635Z,100136.78
2022-10-08T12:21:16.861Z,100153.28
2022-10-08T12:25:36.877Z,100159.13
2022-10-08T12:30:06.683Z,100162.59
2022-10-08T12:34:18.994Z,100144.38
2022-10-08T12:38:42.811Z,100144.19
2022-10-08T12:42:44.601Z,100156.38
2022-10-08T12:47:24.091Z,100146.88
2022-10-08T12:52:14.032Z,100143.81
2022-10-08T12:56:28.780Z,100141.94
2022-10-08T13:00:41.371Z,100135.19
2022-10-08T13:04:54.624Z,100141.41
2022-10-08T13:08:57.201Z,100145.16
2022-10-08T13:13:15.007Z,100137.19
2022-10-08T13:17:32.041Z,100151.34
2022-10-08T13:21:38.183Z,100156.66
2022-10-08T13:25:59.410Z,100145.56
2022-10-08T13:30:33.358Z,100148.38
2022-10-08T13:34:38.319Z,100162.97
2022-10-08T13:38:41.491Z,100167.81
2022-10-08T13:42:51.658Z,100167.63
2022-10-08T13:46:54.515Z,100159.47
2022-10-08T13:50:57.617Z,100184.72
2022-10-08T13:55:06.655Z,100184.34
2022-10-08T13:59:10.780Z,100176.72
2022-10-08T14:03:19.047Z,100200.59
2022-10-08T14:07:34.311Z,100192.28
2022-10-08T14:11:37.575Z,100195.75
2022-10-08T14:20:01.936Z,100207.69
2022-10-08T14:25:18.456Z,100214.06
2022-10-08T14:30:24.180Z,100222.22
2022-10-08T14:34:29.489Z,100223.94
2022-10-08T14:40:00.690Z,100225.41
2022-10-08T15:00:13.770Z,100247.97
2022-10-08T15:04:25.529Z,100246.56
2022-10-08T15:08:28.217Z,100264.03
2022-10-08T15:30:44.201Z,100306.44
2022-10-08T15:34:46.107Z,100300.41
2022-10-08T15:38:52.871Z,100317.03
2022-10-08T15:42:57.754Z,100320.34
2022-10-08T15:53:19.513Z,100339.84
2022-10-08T15:57:39.973Z,100346.59
2022-10-08T16:01:46.997Z,100362.22
2022-10-08T16:05:59.144Z,100358.94
2022-10-08T16:10:09.034Z,100361.56
2022-10-08T16:14:19.375Z,100356.47
2022-10-08T16:18:32.203Z,100365.19
2022-10-08T16:22:36.822Z,100359.28
2022-10-08T16:26:39.930Z,100377.75
2022-10-08T16:30:50.944Z,100373.31
2022-10-08T16:35:42.666Z,100391.09
2022-10-08T16:40:31.962Z,100406.41
2022-10-08T16:44:49.942Z,100416.13
2022-10-08T18:04:43.953Z,100533.19
2022-10-08T18:09:04.290Z,100538.25
2022-10-08T18:13:30.440Z,100555.72
2022-10-08T18:17:33.289Z,100577.53
2022-10-08T18:27:27.154Z,100574.34
2022-10-08T18:32:50.527Z,100579.63
2022-10-08T18:36:46.902Z,100571.03
2022-10-08T18:45:27.471Z,100587.91
2022-10-08T18:49:30.890Z,100589.91
2022-10-08T18:53:42.054Z,100603.19
2022-10-08T18:57:50.221Z,100610.66
2022-10-08T19:01:59.286Z,100606.28
2022-10-08T19:06:02.083Z,100625.34
2022-10-08T19:10:15.296Z,100623.56
2022-10-08T19:14:19.679Z,100626.91
2022-10-08T19:19:08.937Z,100641.59
2022-10-08T19:29:50.503Z,100649.34
2022-10-08T19:39:43.882Z,100656.97
2022-10-08T19:44:18.959Z,100661.25
2022-10-08T19:49:50.126Z,100670.53
2022-10-08T19:53:31.776Z,100684.06
2022-10-08T19:57:38.215Z,100681.41
2022-10-08T20:01:42.838Z,100686.25
2022-10-08T20:05:48.167Z,100699.63
2022-10-08T20:09:53.873Z,100694.53
2022-10-08T20:13:56.941Z,100711.22
2022-10-08T20:18:00.207Z,100710.38
2022-10-08T20:22:09.646Z,100702.78
2022-10-08T20:26:22.467Z,100714.50
2022-10-08T20:30:24.758Z,100711.88
2022-10-08T20:34:28.930Z,100730.03
2022-10-08T20:38:33.742Z,100730.69
2022-10-08T20:42:39.000Z,100746.13
2022-10-08T20:46:43.493Z,100736.59
2022-10-08T20:50:51.811Z,100741.69
2022-10-08T20:55:00.479Z,100744.25
2022-10-08T20:59:05.441Z,100753.06
2022-10-08T21:03:08.014Z,100764.19
2022-10-08T21:07:30.318Z,100759.22
2022-10-08T21:11:33.768Z,100769.81
2022-10-08T21:15:36.097Z,100765.38
2022-10-08T21:19:42.338Z,100777.59
2022-10-08T21:28:42.743Z,100792.09
2022-10-08T21:32:58.921Z,100777.19
2022-10-08T21:37:02.724Z,100786.25
2022-10-08T21:41:12.957Z,100784.13
2022-10-08T21:45:15.126Z,100787.28
2022-10-08T21:49:20.509Z,100788.81
2022-10-08T21:53:22.503Z,100789.19
2022-10-08T21:57:24.613Z,100798.50
2022-10-08T22:01:32.359Z,100804.81
2022-10-08T22:05:39.005Z,100798.50
2022-10-08T22:09:41.852Z,100804.13
2022-10-08T22:13:43.737Z,100803.53
2022-10-08T22:17:45.566Z,100794.97
2022-10-08T22:21:48.228Z,100816.41
2022-10-08T22:26:10.679Z,100812.41
2022-10-08T22:30:12.727Z,100820.53
2022-10-08T22:34:14.691Z,100828.13
2022-10-08T22:38:16.595Z,100828.69
2022-10-08T22:42:18.569Z,100828.56
2022-10-08T22:46:23.127Z,100835.59
2022-10-08T22:50:25.040Z,100831.56
2022-10-08T22:54:26.920Z,100832.19
2022-10-08T22:58:28.974Z,100844.44
2022-10-08T23:02:31.413Z,100841.34
2022-10-08T23:06:34.201Z,100845.03
2022-10-08T23:10:38.999Z,100841.94
2022-10-08T23:14:40.821Z,100859.31
2022-10-08T23:18:44.773Z,100860.50
2022-10-08T23:22:47.000Z,100860.84
2022-10-08T23:26:49.736Z,100866.19
2022-10-08T23:30:51.650Z,100862.16
2022-10-08T23:34:53.441Z,100868.56
2022-10-08T23:38:56.453Z,100868.81
2022-10-08T23:42:58.273Z,100880.22
2022-10-08T23:47:00.077Z,100879.13
2022-10-08T23:51:02.290Z,100877.38
2022-10-08T23:55:04.501Z,100879.38
2022-10-08T23:59:06.401Z,100880.84
